Racecast

Russell King

Laramie (WY) · 12 · EASTWY D4A4A · Compare head to head

Athlete rating 120.3 2022 TF season
Best race 126.2 TF
Races 68
Seasons 6 2017 — 2022

RankedNation #14451·WY #60·WY D4A #43·EAST #21·Team #16 ?

Rating scale ?
Speed rating — all races

Cross Country

XC speed rating

2020 XC 118.4

Laramie (WY) · Grade 12

Date Meet Event Result Place Rating Difficulty PR/SR Flags
2020-10-24 Paradise Valley Country Club 5000m 17:45.3 52nd · 6th on team 121.4 +0.030 SR CSR RSR
2020-09-19 Black Tooth Park 5000m 18:00.4 22nd · 6th on team 118.0 +0.016 ★CR SR CSR RSR
2020-08-28 Casper Mountain Road 5000m 19:52.7 4th · 3rd on team 115.8 +0.104 ★CR SR CSR RSR

2019 XC 117.8

Laramie (WY) · Grade 11

Date Meet Event Result Place Rating Difficulty PR/SR Flags
2019-10-26 Valli-Vue Golf Course 5000m 18:32.3 50th · 6th on team 122.1 +0.092 ★CR CSR RSR
2019-10-18 Paradise Valley Country Club 5000m 17:41.8 25th · 4th on team 119.6 +0.030 ★PR ★CR SR CSR RSR
2019-09-20 Fort Collins High School 5000m 18:29 20th · 3rd on team 115.3 +0.023 ★CR CSR RSR
2019-09-07 Heritage High School 5000m 18:05.8 71st · 6th on team 114.3 -0.001 PR ★CR SR CSR RSR

2018 XC 107.7

Laramie (WY) · Grade 10

Date Meet Event Result Place Rating Difficulty PR/SR Flags
2018-09-28 Margaret W. Carpenter Recreation Center 5000m 19:12 49th · 4th on team 108.9 +0.014 PR ★CR SR CSR
2018-09-07 White Mountain Golf Course 5000m 20:05.9 39th · 9th on team 109.6 +0.061 PR ★CR SR CSR RSR
2018-08-31 Rawlins High School 5000m 21:23.1 20th · 4th on team 104.7 +0.081 PR ★CR SR CSR RSR

Track & Field

TF speed rating

2022 TF 117.8

Laramie (WY) · Grade 12

Date Meet Event Result Place Rating Difficulty PR/SR Flags
2022-05-14 Wyoming 4A East Regionals 800m 2:13.5 14th · 3rd on team 120.0 +0.012
2022-05-06 2022 Wiseman Invite 800m 2:06.73 2nd · 1st on team 122.8 -0.012 ★PR SR RSR
2022-04-30 Liberty Bell Track and Field Invitational 800m 2:09.59 42nd · 2nd on team 119.7 -0.015 PR SR
2022-04-22 Kendra Roeder Invite 800m 2:12.32 3rd · 1st on team 120.3 +0.006 PR SR RSR
2022-04-22 Pine Bluffs Invite 800m 2:12.32 3rd · 1st on team 120.3 +0.006
2022-04-08 Okie Blanchard Invite 400m 56.95 7th · 1st on team +0.006 ★PR SR
2022-04-01 Wheatland Invite 800m 2:14.37 6th · 4th on team 116.6 -0.007 PR SR
2022-04-01 Wheatland Invite 200m 25.91 27th · 8th on team -0.007 ★PR SR
2022-03-05 Wyoming Indoor State Track & Field Championships 400m 57.4 36th · 3rd on team -0.012 PR SR
2022-03-05 Wyoming Indoor State Track & Field Championships 1600m 4:58.1 26th · 3rd on team 117.4 -0.012
2022-02-25 Last Chance Qualifier 1600m 5:09.75 13th · 5th on team 115.0 -0.005
2022-02-19 Wyoming Invitational 1600m 4:57.56 15th · 2nd on team 118.1 -0.003 ★PR SR RSR
2022-02-12 Mustang Invitational 1600m 5:00.2 10th · 1st on team 116.3 -0.003 PR SR RSR
2022-02-04 Basin Nation 400m 58.49 20th · 2nd on team -0.012 SR
2022-01-29 307 Invitational 800m 2:21.33 8th · 5th on team 113.6 -0.005 RSR
2022-01-22 Campbell County Invitational 800m 2:17.48 5th · 3rd on team 113.3 -0.023 SR RSR

2021 TF 113.4

Laramie (WY) · Grade 11

Date Meet Event Result Place Rating Difficulty PR/SR Flags
2021-04-30 Kelly Walsh Invite 800m 2:15.24 12th · 3rd on team 117.6 +0.006 PR SR RSR
2021-04-30 Kelly Walsh Invite 400m 57.75 14th · 4th on team +0.006 PR SR
2021-04-23 Twilight Invitational 2021 800m 2:15.94 13th · 3rd on team 113.5 -0.017 SR RSR
2021-04-09 Okie Blanchard Invite 400m 59.98 9th · 4th on team +0.006
2021-04-09 Okie Blanchard Invite 800m 2:23.07 10th · 2nd on team 112.2 +0.006
2021-04-01 Wheatland Invitational 400m 58.86 17th · 5th on team -0.004 PR SR
2021-03-27 Sidney Invitational 800m 2:19.97 6th · 2nd on team 111.7 -0.012 SR
2021-02-13 Kelly Walsh Indoor Invitational Meet 1600m 5:12.88 6th · 4th on team 112.7 -0.003 SR RSR
2021-02-13 Kelly Walsh Indoor Invitational Meet 800m 2:20.09 5th · 2nd on team 112.8 -0.003 SR RSR
2021-02-05 WHSAA Indoor Meet 400m 59 8th · 3rd on team -0.023 PR SR

2020 TF 113.4

Laramie (WY) · Grade 10

Date Meet Event Result Place Rating Difficulty PR/SR Flags
2020-03-07 Wyoming State Indoor Championships 800m 2:15.95 36th · 4th on team 115.3 -0.023 SR RSR
2020-02-28 Wyoming Last Chance 800m 2:23.83 16th · 5th on team 112.3 -0.005
2020-02-28 Wyoming Last Chance 400m 1:01.42 33rd · 8th on team -0.005
2020-02-21 Basin Nation Indoor Meet 1600m 5:04.1 17th · 5th on team 115.2 -0.023 PR SR RSR
2020-02-21 Basin Nation Indoor Meet 400m 1:00.31 31st · 5th on team -0.023 PR SR
2020-02-01 Air Force HS Indoor Open 800m 2:20.41 59th · 4th on team 113.3 -0.004 SR RSR
2020-02-01 Air Force HS Indoor Open 1mile 5:13.25 78th · 4th on team 114.3 -0.004 ★PR SR RSR
2020-02-01 Air Force HS Indoor Open 2miles 11:23.24 19th · 3rd on team 112.8 -0.004 ★PR SR
2020-01-24 Wyoming HS Open 1600m 5:20.8 4th · 3rd on team 112.3 -0.005 RSR
2020-01-17 Natrona Indoor Invitational #1 1600m 5:17.13 23rd · 6th on team 111.8 -0.003 SR RSR

2019 TF 108.2

Laramie (WY) · Grade 9

Date Meet Event Result Place Rating Difficulty PR/SR Flags
2019-05-11 Wyoming 1A-2A-4A East Regional 800m 2:15.57 24th · 4th on team 111.8 -0.039 PR SR
2019-04-15 Okie Blanchard Invitational 800m 2:19.49 6th · 2nd on team 113.7 +0.006 PR SR RSR
2019-04-15 Okie Blanchard Invitational 1600m 5:16.33 5th · 3rd on team 112.6 +0.006 PR SR
2019-04-05 Trojan Invitational 1600m 5:21.1 29th · 5th on team 108.8 -0.012
2019-03-30 Altitude Running Invitational 1600m 5:24.41 44th · 3rd on team 108.0 -0.012
2019-02-08 307 Invitational 1600m 5:27.57 5th · 4th on team 109.9 -0.005 RSR
2019-02-02 Basin Nation Invitational 800m 2:23.91 21st · 3rd on team 108.5 -0.023 PR SR RSR
2019-02-02 Basin Nation Invitational 1600m 5:21.04 20th · 4th on team 109.1 -0.023 PR SR RSR
2019-01-24 Wyoming HS Open 800m 2:32.82 24th · 4th on team 105.3 -0.005
2019-01-24 Wyoming HS Open 1600m 5:44.39 19th · 5th on team 104.6 -0.005
2019-01-19 Gillette Invitational 1600m 5:33.65 29th · 4th on team 104.9 -0.023 PR SR
2019-01-12 Natrona Indoor Invitational 800m 2:28.99 19th · 5th on team 105.6 -0.003 PR SR RSR
2019-01-12 Natrona Indoor Invitational 1600m 5:38.49 31st · 5th on team 104.4 -0.003 SR

2018 TF 121.7

Laramie (WY) · Grade 8

Date Meet Event Result Place Rating Difficulty PR/SR Flags
2018-05-07 East Classic 1600m 5:40.75 8th · 1st on team 122.8 -0.002
2018-05-07 East Classic 800m 2:29.69 4th · 1st on team 126.2 -0.002 PR ★R SR RSR
2018-04-28 Wheatland Invitational Track Meet 1600m 5:36.04 3rd · 1st on team 124.0 -0.004 PR R SR RSR
2018-04-28 Wheatland Invitational Track Meet 800m 2:34 2nd · 1st on team 122.3 -0.004 PR SR
2018-04-25 Val Celgelski McLeod Memorial 1600m 5:44.4 2nd · 2nd on team 122.4 +0.010 PR R SR RSR
2018-04-25 Val Celgelski McLeod Memorial 800m 2:34.1 1st · 1st on team 123.8 +0.010 PR R SR RSR
2018-04-21 2018 Douglas MS Invite 1600m 5:58.97 4th · 1st on team 115.3 -0.002
2018-04-14 Douglas Invitational Track Meet 1600m 5:58.97 4th · 1st on team 116.7 -0.002 PR R SR RSR

2017 TF 115.7

Laramie (WY) · Grade 7

Date Meet Event Result Place Rating Difficulty PR/SR Flags
2017-05-08 East Classic 800m 2:42.28 16th · 2nd on team 115.7 -0.002 PR R SR RSR